METAR & TAF Report
Available data for CYAM from the past 6 hours
SAULT STE MARIE, ON
Metar
CYAM 120700Z 05002KT 10SM FEW028 SCT150 BKN240 M11/M13 A3006 RMK SC1AC2CI3 SLP193

07:00 UTC

Wind: 50° 2kt

Visibility: 10 SM

Sky: FEW 2800 ft

Temp: -11 deg C / 12.2 deg F

Dewpoint: -13 deg C / 8.6 deg F

Pressure: 30.06 inHg

TAF
TAF AMD CYAM 120607Z 1206/1214 VRB03KT P6SM FEW020 TEMPO 1206/1214 BKN020 RMK NXT FCST BY 120800Z
NOTAM

Click here for NOTAMs.